Time;durP1;ratioP1;P1;durP2;ratioP2;P2;SDS_P1;SDS_P2;PMS_P1;PMS_P2;Temp;Humidity;BMP_temperature;BMP_pressure;BME280_temperature;BME280_humidity;BME280_pressure;Samples;Min_cycle;Max_cycle;Signal;HPM_P1;HPM_P2
2022/10/16 00:00:31;;;;;;;1.75;1.00;;;12.50;99.90;;;;;;4969328;28;20037;-75
2022/10/16 00:02:57;;;;;;;1.02;0.75;;;12.50;99.90;;;;;;4969017;28;20034;-75
2022/10/16 00:05:23;;;;;;;2.50;1.70;;;12.50;99.90;;;;;;4969272;28;20059;-77
2022/10/16 00:07:48;;;;;;;1.15;1.08;;;12.50;99.90;;;;;;4969215;28;20027;-76
2022/10/16 00:10:14;;;;;;;2.05;0.90;;;12.60;99.90;;;;;;4969263;28;20031;-76
2022/10/16 00:12:39;;;;;;;0.60;0.60;;;12.60;99.90;;;;;;4969279;28;20109;-75
2022/10/16 00:15:06;;;;;;;0.88;0.85;;;12.60;99.90;;;;;;4968479;28;20030;-75
2022/10/16 00:17:32;;;;;;;2.10;1.20;;;12.70;99.90;;;;;;4968801;28;20338;-76
2022/10/16 00:19:57;;;;;;;1.80;1.40;;;12.70;99.90;;;;;;4968779;28;20055;-75
2022/10/16 00:22:23;;;;;;;5.55;0.88;;;12.70;99.90;;;;;;4968732;28;20027;-76
2022/10/16 00:24:50;;;;;;;1.48;1.20;;;12.70;99.90;;;;;;4967123;28;20043;-76
2022/10/16 00:27:16;;;;;;;1.02;1.00;;;12.70;99.90;;;;;;4969262;28;20023;-76
2022/10/16 00:29:42;;;;;;;3.22;1.63;;;12.70;99.90;;;;;;4982658;28;20030;-75
2022/10/16 00:32:08;;;;;;;0.77;0.77;;;12.70;99.90;;;;;;4988102;28;20514;-76
2022/10/16 00:34:34;;;;;;;2.90;1.67;;;12.70;99.90;;;;;;4988005;28;20034;-75
2022/10/16 00:37:00;;;;;;;4.57;0.85;;;12.70;99.90;;;;;;4988364;28;20410;-76
2022/10/16 00:39:26;;;;;;;0.55;0.55;;;12.70;99.90;;;;;;4987787;28;20022;-76
2022/10/16 00:41:52;;;;;;;0.70;0.70;;;12.60;99.90;;;;;;4987898;28;20022;-75
2022/10/16 00:44:42;;;;;;;19.40;0.93;;;12.60;99.90;;;;;;4987336;28;20109;-75
2022/10/16 00:47:17;;;;;;;2.95;0.57;;;12.50;99.90;;;;;;4987492;28;20026;-76
2022/10/16 00:49:43;;;;;;;1.98;1.73;;;12.40;99.90;;;;;;4988148;28;20093;-76
2022/10/16 00:52:10;;;;;;;0.47;0.47;;;12.30;99.90;;;;;;4987652;28;20495;-77
2022/10/16 00:54:36;;;;;;;3.92;1.13;;;12.30;99.90;;;;;;4987349;28;20517;-75
2022/10/16 00:57:05;;;;;;;0.63;0.55;;;12.20;99.90;;;;;;4987833;28;20030;-75
2022/10/16 00:59:37;;;;;;;0.93;0.88;;;12.20;99.90;;;;;;4986113;28;20512;-75
2022/10/16 01:02:05;;;;;;;0.60;0.60;;;12.20;99.90;;;;;;4987624;28;20125;-76
2022/10/16 01:04:40;;;;;;;1.05;0.95;;;11.00;99.90;;;;;;4987428;28;20053;-75
2022/10/16 01:07:11;;;;;;;1.13;0.88;;;12.10;99.90;;;;;;4987935;28;20022;-75
2022/10/16 01:10:00;;;;;;;4.75;1.42;;;12.10;99.90;;;;;;4987731;28;20479;-76
2022/10/16 01:12:47;;;;;;;7.10;1.58;;;12.10;99.90;;;;;;4987633;28;20018;-75
2022/10/16 01:15:30;;;;;;;2.35;1.80;;;12.10;99.90;;;;;;4986965;28;20031;-78
2022/10/16 01:18:28;;;;;;;0.70;0.70;;;12.10;99.90;;;;;;4988651;28;20015;-75
2022/10/16 01:21:04;;;;;;;0.80;0.80;;;12.10;99.90;;;;;;4987746;28;20093;-75
2022/10/16 01:23:51;;;;;;;1.23;0.80;;;12.10;99.90;;;;;;4987517;28;20034;-75
2022/10/16 01:26:23;;;;;;;7.82;2.60;;;12.00;99.90;;;;;;4987573;28;20040;-76
2022/10/16 01:28:54;;;;;;;1.17;0.63;;;11.90;99.90;;;;;;4981287;28;20105;-77
2022/10/16 01:31:25;;;;;;;1.55;1.27;;;11.90;99.90;;;;;;4967707;28;20600;-76
2022/10/16 01:34:04;;;;;;;5.70;1.23;;;11.90;99.90;;;;;;4967782;28;20027;-76
2022/10/16 01:36:37;;;;;;;0.77;0.77;;;11.80;99.90;;;;;;4968386;28;20026;-76
2022/10/16 01:39:05;;;;;;;0.68;0.68;;;11.70;99.90;;;;;;4968557;28;20058;-75
2022/10/16 01:41:39;;;;;;;0.70;0.70;;;11.60;99.90;;;;;;4969378;28;20023;-75
2022/10/16 01:44:16;;;;;;;0.85;0.50;;;11.60;99.90;;;;;;4970156;28;20123;-75
2022/10/16 01:46:45;;;;;;;1.75;1.35;;;11.60;99.90;;;;;;4972633;28;20023;-76
2022/10/16 01:49:13;;;;;;;1.33;1.23;;;11.60;99.90;;;;;;4973830;28;20120;-77
2022/10/16 01:51:39;;;;;;;0.98;0.70;;;11.50;99.90;;;;;;4973998;28;20492;-76
2022/10/16 01:54:08;;;;;;;2.67;0.90;;;11.50;99.90;;;;;;4972333;28;20026;-76
2022/10/16 01:56:36;;;;;;;0.98;0.90;;;11.50;99.90;;;;;;4968087;28;20034;-75
2022/10/16 01:59:03;;;;;;;0.60;0.60;;;11.50;99.90;;;;;;4967030;28;20029;-77
2022/10/16 02:01:33;;;;;;;0.52;0.52;;;11.50;99.90;;;;;;4969849;28;20031;-75
2022/10/16 02:04:03;;;;;;;7.03;2.30;;;11.50;99.90;;;;;;4971240;28;20034;-75
2022/10/16 02:06:29;;;;;;;4.70;0.40;;;11.50;99.90;;;;;;4971813;28;20475;-77
2022/10/16 02:08:55;;;;;;;1.63;1.10;;;11.60;99.90;;;;;;4971344;28;20530;-75
2022/10/16 02:11:21;;;;;;;0.40;0.40;;;11.70;99.90;;;;;;4971744;28;20054;-75
2022/10/16 02:13:55;;;;;;;0.32;0.32;;;11.60;99.90;;;;;;4971883;28;20034;-75
2022/10/16 02:16:32;;;;;;;0.50;0.50;;;11.60;99.90;;;;;;4971427;28;20061;-76
2022/10/16 02:18:57;;;;;;;0.50;0.50;;;11.50;99.90;;;;;;4971208;28;20157;-75
2022/10/16 02:21:30;;;;;;;1.92;1.15;;;11.50;99.90;;;;;;4971225;28;20532;-75
2022/10/16 02:24:12;;;;;;;0.93;0.60;;;11.50;99.90;;;;;;4970876;28;20054;-75
2022/10/16 02:26:57;;;;;;;5.10;0.93;;;11.40;99.90;;;;;;4986441;28;20051;-75
2022/10/16 02:29:26;;;;;;;3.30;1.10;;;11.40;99.90;;;;;;4982180;28;20035;-75
2022/10/16 02:31:56;;;;;;;0.65;0.65;;;11.40;99.90;;;;;;4990106;28;20023;-75
2022/10/16 02:34:24;;;;;;;0.47;0.30;;;11.50;99.90;;;;;;4990324;28;20503;-74
2022/10/16 02:36:54;;;;;;;0.50;0.50;;;11.50;99.90;;;;;;4990542;28;20053;-76
2022/10/16 02:39:20;;;;;;;8.27;0.85;;;11.60;99.90;;;;;;4990207;28;20113;-77
2022/10/16 02:41:47;;;;;;;1.15;0.90;;;11.60;99.90;;;;;;4988960;28;20030;-76
2022/10/16 02:44:13;;;;;;;2.60;0.52;;;11.50;99.90;;;;;;4990382;28;20127;-76
2022/10/16 02:46:39;;;;;;;0.75;0.63;;;11.60;99.90;;;;;;4989919;28;20475;-75
2022/10/16 02:49:05;;;;;;;0.43;0.43;;;11.60;99.90;;;;;;4990002;28;20026;-76
2022/10/16 02:51:30;;;;;;;1.05;0.75;;;11.60;99.90;;;;;;4990211;28;20022;-75
2022/10/16 02:53:56;;;;;;;1.00;0.93;;;11.60;99.90;;;;;;4989985;28;20030;-76
2022/10/16 02:56:22;;;;;;;17.50;2.22;;;11.60;99.90;;;;;;4988840;28;20299;-76
2022/10/16 02:58:47;;;;;;;0.70;0.70;;;11.60;99.90;;;;;;4990064;28;20026;-77
2022/10/16 03:01:16;;;;;;;0.77;0.77;;;11.60;99.90;;;;;;4989374;28;20399;-76
2022/10/16 03:03:42;;;;;;;1.70;1.00;;;11.70;99.90;;;;;;4989918;28;20034;-76
2022/10/16 03:06:08;;;;;;;1.05;0.52;;;11.60;99.90;;;;;;4989526;28;20169;-77
2022/10/16 03:08:34;;;;;;;0.90;0.73;;;11.50;99.90;;;;;;4989563;28;20037;-75
2022/10/16 03:11:00;;;;;;;0.50;0.50;;;11.50;99.90;;;;;;4988813;28;20030;-76
2022/10/16 03:13:26;;;;;;;0.75;0.70;;;11.50;99.90;;;;;;4989042;28;20030;-75
2022/10/16 03:15:52;;;;;;;2.90;1.25;;;11.50;99.90;;;;;;4989460;28;20029;-77
2022/10/16 03:18:17;;;;;;;0.50;0.50;;;11.50;99.90;;;;;;4987896;28;20502;-77
2022/10/16 03:20:43;;;;;;;0.68;0.45;;;11.50;99.90;;;;;;4989147;28;20073;-76
2022/10/16 03:23:09;;;;;;;7.78;1.20;;;11.60;99.90;;;;;;4989318;28;20038;-77
2022/10/16 03:25:35;;;;;;;0.98;0.88;;;11.60;99.90;;;;;;4989295;28;20050;-77
2022/10/16 03:28:01;;;;;;;0.73;0.73;;;11.70;99.90;;;;;;4989156;28;20101;-76
2022/10/16 03:30:27;;;;;;;0.98;0.70;;;11.70;99.90;;;;;;4969520;28;20538;-76
2022/10/16 03:32:53;;;;;;;1.05;0.50;;;11.70;99.90;;;;;;4969848;28;20023;-75
2022/10/16 03:35:20;;;;;;;0.73;0.73;;;11.60;99.90;;;;;;4969652;28;20404;-76
2022/10/16 03:37:46;;;;;;;0.60;0.60;;;11.50;99.90;;;;;;4969828;28;20023;-77
2022/10/16 03:40:13;;;;;;;3.83;1.77;;;11.50;99.90;;;;;;4969628;28;20031;-77
2022/10/16 03:42:39;;;;;;;3.30;0.50;;;11.60;99.90;;;;;;4969269;28;20053;-76
2022/10/16 03:45:05;;;;;;;0.95;0.90;;;11.50;99.90;;;;;;4967817;28;20408;-76
2022/10/16 03:47:32;;;;;;;1.02;0.50;;;11.50;99.90;;;;;;4969602;28;20164;-75
2022/10/16 03:49:59;;;;;;;1.60;0.70;;;11.60;99.90;;;;;;4969610;28;20027;-75
2022/10/16 03:52:25;;;;;;;0.50;0.50;;;11.60;99.90;;;;;;4969654;28;20058;-76
2022/10/16 03:54:51;;;;;;;0.77;0.73;;;11.60;99.90;;;;;;4969342;28;20031;-76
2022/10/16 03:57:16;;;;;;;0.52;0.52;;;11.60;99.90;;;;;;4969329;28;20045;-76
2022/10/16 03:59:42;;;;;;;2.60;1.00;;;11.60;99.90;;;;;;4969433;28;20023;-76
2022/10/16 04:02:08;;;;;;;11.00;2.75;;;11.60;99.90;;;;;;4969359;28;20230;-76
2022/10/16 04:04:34;;;;;;;0.63;0.55;;;11.60;99.90;;;;;;4968810;28;20453;-75
2022/10/16 04:07:00;;;;;;;0.75;0.63;;;11.60;99.90;;;;;;4969382;28;20074;-75
2022/10/16 04:09:26;;;;;;;1.05;0.68;;;11.70;99.90;;;;;;4969413;28;20038;-75
2022/10/16 04:11:52;;;;;;;1.38;0.55;;;;;;;;;;4969035;28;20031;-75
2022/10/16 04:14:18;;;;;;;0.40;0.40;;;11.50;99.90;;;;;;4968755;28;20023;-75
2022/10/16 04:16:43;;;;;;;0.88;0.55;;;11.50;99.90;;;;;;4969507;28;20360;-76
2022/10/16 04:19:10;;;;;;;0.60;0.50;;;11.40;99.90;;;;;;4983341;28;20051;-76
2022/10/16 04:21:36;;;;;;;0.32;0.32;;;11.40;99.90;;;;;;4969091;28;20037;-76
2022/10/16 04:24:03;;;;;;;1.10;0.75;;;11.30;99.90;;;;;;4968460;28;20039;-76
2022/10/16 04:26:29;;;;;;;1.35;0.70;;;11.40;99.90;;;;;;4968882;28;20474;-75
2022/10/16 04:28:55;;;;;;;3.95;0.70;;;11.40;99.90;;;;;;4969044;28;20594;-76
2022/10/16 04:31:20;;;;;;;0.43;0.43;;;11.40;99.90;;;;;;4968483;28;20546;-76
2022/10/16 04:33:46;;;;;;;0.90;0.90;;;11.40;99.90;;;;;;4968113;28;20399;-76
2022/10/16 04:36:12;;;;;;;0.60;0.60;;;11.40;99.90;;;;;;4968356;28;20528;-75
2022/10/16 04:38:39;;;;;;;0.30;0.30;;;11.30;99.90;;;;;;4968808;28;20413;-76
2022/10/16 04:41:08;;;;;;;0.55;0.55;;;11.30;99.90;;;;;;4968703;28;20030;-76
2022/10/16 04:43:34;;;;;;;8.98;1.25;;;11.30;99.90;;;;;;4968693;28;20035;-76
2022/10/16 04:46:00;;;;;;;1.35;0.68;;;11.20;99.90;;;;;;4968497;28;20034;-75
2022/10/16 04:48:26;;;;;;;0.50;0.50;;;11.20;99.90;;;;;;4968110;28;20135;-75
2022/10/16 04:50:52;;;;;;;0.90;0.90;;;;;;;;;;4968156;28;20532;-77
2022/10/16 04:53:18;;;;;;;0.52;0.52;;;10.80;99.90;;;;;;4968398;28;20101;-76
2022/10/16 04:55:44;;;;;;;0.82;0.80;;;11.30;99.90;;;;;;4968702;28;20027;-76
2022/10/16 04:58:10;;;;;;;0.55;0.43;;;11.30;99.90;;;;;;4968625;28;20081;-76
2022/10/16 05:00:36;;;;;;;1.25;0.98;;;11.30;99.90;;;;;;4968921;28;20065;-76
2022/10/16 05:03:05;;;;;;;0.38;0.38;;;11.40;99.90;;;;;;4968556;28;20109;-76
2022/10/16 05:05:31;;;;;;;;;;;11.30;99.90;;;;;;4968539;28;20031;-76
2022/10/16 05:07:57;;;;;;;0.30;0.30;;;11.30;99.90;;;;;;4969021;28;19913;-75
2022/10/16 05:10:22;;;;;;;0.50;0.50;;;11.30;99.90;;;;;;4968891;28;20527;-77
2022/10/16 05:12:48;;;;;;;0.73;0.70;;;11.40;99.90;;;;;;4968450;28;20077;-76
2022/10/16 05:15:14;;;;;;;0.20;0.20;;;11.50;99.90;;;;;;4967668;28;20547;-75
2022/10/16 05:17:39;;;;;;;1.20;0.82;;;11.50;99.90;;;;;;4967292;28;20035;-76
2022/10/16 05:20:06;;;;;;;1.08;0.80;;;11.50;99.90;;;;;;4979546;28;20049;-77
2022/10/16 05:22:31;;;;;;;0.40;0.40;;;11.50;99.90;;;;;;4987094;28;20084;-75
2022/10/16 05:24:57;;;;;;;1.40;0.63;;;11.50;99.90;;;;;;4985979;28;20034;-75
2022/10/16 05:27:22;;;;;;;0.73;0.73;;;11.50;99.90;;;;;;4987734;28;20073;-77
2022/10/16 05:29:49;;;;;;;1.13;1.13;;;11.40;99.90;;;;;;4980959;28;20031;-76
2022/10/16 05:32:16;;;;;;;0.50;0.45;;;11.40;99.90;;;;;;4968386;28;20030;-76
2022/10/16 05:34:42;;;;;;;0.65;0.50;;;11.30;99.90;;;;;;4968614;28;20023;-76
2022/10/16 05:37:08;;;;;;;0.60;0.60;;;11.30;99.90;;;;;;4970303;28;20031;-76
2022/10/16 05:39:34;;;;;;;1.33;1.08;;;11.30;99.90;;;;;;4972266;28;20539;-76
2022/10/16 05:42:00;;;;;;;0.40;0.40;;;11.30;99.90;;;;;;4972479;28;20367;-75
2022/10/16 05:44:25;;;;;;;0.70;0.70;;;11.30;99.90;;;;;;4971175;28;20479;-76
2022/10/16 05:46:51;;;;;;;0.88;0.85;;;11.30;99.90;;;;;;4971536;28;20026;-75
2022/10/16 05:49:17;;;;;;;1.35;0.88;;;11.40;99.90;;;;;;4987098;28;20030;-76
2022/10/16 05:51:42;;;;;;;0.35;0.35;;;11.30;99.90;;;;;;4971813;28;20027;-77
2022/10/16 05:54:08;;;;;;;1.75;1.10;;;11.30;99.90;;;;;;4971210;28;20034;-76
2022/10/16 05:56:34;;;;;;;1.80;0.82;;;11.40;99.90;;;;;;4971530;28;20023;-77
2022/10/16 05:58:59;;;;;;;3.20;1.55;;;11.30;99.90;;;;;;4971359;28;20110;-75
2022/10/16 06:01:25;;;;;;;0.85;0.55;;;11.30;99.90;;;;;;4971302;28;20126;-76
2022/10/16 06:03:52;;;;;;;19.05;1.00;;;;;;;;;;4969984;28;20242;-76
2022/10/16 06:06:23;;;;;;;0.35;0.35;;;11.30;99.90;;;;;;4972054;28;20022;-76
2022/10/16 06:08:49;;;;;;;1.58;1.20;;;11.40;99.90;;;;;;4971408;28;20246;-76
2022/10/16 06:11:21;;;;;;;0.88;0.77;;;11.50;99.90;;;;;;4971434;28;20598;-75
2022/10/16 06:13:54;;;;;;;5.47;1.00;;;11.50;99.90;;;;;;4985493;28;20037;-77
2022/10/16 06:16:20;;;;;;;1.27;1.17;;;11.50;99.90;;;;;;4988033;28;20503;-76
2022/10/16 06:18:47;;;;;;;1.88;0.70;;;11.50;99.90;;;;;;4975714;28;20066;-76
2022/10/16 06:21:17;;;;;;;2.35;0.90;;;11.50;99.90;;;;;;4978942;28;20027;-76
2022/10/16 06:23:45;;;;;;;1.98;0.90;;;11.60;99.90;;;;;;4991135;28;20278;-77
2022/10/16 06:26:14;;;;;;;1.27;0.95;;;11.60;99.90;;;;;;4993778;28;20383;-76
2022/10/16 06:28:40;;;;;;;0.77;0.77;;;11.80;99.90;;;;;;4987858;28;20062;-76
2022/10/16 06:31:08;;;;;;;0.77;0.77;;;11.80;99.90;;;;;;4976172;28;20262;-76
2022/10/16 06:33:34;;;;;;;0.45;0.45;;;11.90;99.90;;;;;;4976356;28;20383;-76
2022/10/16 06:36:05;;;;;;;4.30;1.08;;;12.00;99.90;;;;;;4976143;28;20046;-76
2022/10/16 06:38:31;;;;;;;0.47;0.30;;;12.10;99.90;;;;;;4976876;28;20034;-76
2022/10/16 06:40:57;;;;;;;0.40;0.38;;;12.10;99.90;;;;;;4973362;28;20484;-77
2022/10/16 06:43:23;;;;;;;1.20;1.10;;;12.20;99.90;;;;;;4976862;28;20107;-76
2022/10/16 06:45:56;;;;;;;14.52;1.38;;;12.30;99.90;;;;;;4973874;28;20023;-76
2022/10/16 06:48:23;;;;;;;1.00;0.73;;;12.30;99.90;;;;;;4984317;28;20023;-76
2022/10/16 06:51:00;;;;;;;1.55;0.93;;;12.40;99.90;;;;;;4979005;28;20026;-76
2022/10/16 06:53:29;;;;;;;1.23;0.80;;;12.50;99.90;;;;;;4975632;28;20035;-76
2022/10/16 06:55:54;;;;;;;1.73;0.87;;;12.70;99.90;;;;;;4980891;28;20366;-76
2022/10/16 06:58:21;;;;;;;7.63;0.93;;;12.80;99.90;;;;;;4987640;28;20034;-76
2022/10/16 07:00:47;;;;;;;2.25;1.00;;;12.90;99.90;;;;;;4982968;28;20027;-76
2022/10/16 07:03:13;;;;;;;0.70;0.70;;;13.10;99.90;;;;;;4999431;28;20076;-76
2022/10/16 07:05:40;;;;;;;11.75;2.78;;;13.20;99.90;;;;;;4999100;28;20050;-76
2022/10/16 07:08:06;;;;;;;0.50;0.50;;;13.30;99.90;;;;;;4999983;28;20037;-75
2022/10/16 07:10:32;;;;;;;0.60;0.60;;;13.50;99.90;;;;;;5000753;28;20341;-75
2022/10/16 07:12:58;;;;;;;1.35;0.75;;;13.70;99.90;;;;;;4999640;28;20034;-76
2022/10/16 07:15:25;;;;;;;0.60;0.60;;;13.70;99.90;;;;;;4999176;28;20034;-76
2022/10/16 07:17:51;;;;;;;0.55;0.55;;;13.80;99.90;;;;;;4999617;28;20206;-77
2022/10/16 07:20:18;;;;;;;0.55;0.43;;;14.00;99.90;;;;;;4995502;28;20110;-77
2022/10/16 07:22:43;;;;;;;0.93;0.90;;;14.20;99.90;;;;;;4976899;28;20302;-76
2022/10/16 07:25:09;;;;;;;0.52;0.52;;;14.50;99.90;;;;;;4975475;28;20103;-77
2022/10/16 07:27:35;;;;;;;0.90;0.80;;;14.60;99.90;;;;;;4973029;28;20066;-78
2022/10/16 07:30:01;;;;;;;8.27;1.23;;;14.70;99.90;;;;;;4995293;28;20345;-76
2022/10/16 07:32:26;;;;;;;1.05;0.70;;;14.80;99.90;;;;;;4994256;28;20034;-77
2022/10/16 07:34:53;;;;;;;0.40;0.30;;;15.00;99.90;;;;;;4988886;28;20029;-76
2022/10/16 07:37:18;;;;;;;1.10;1.10;;;15.10;99.90;;;;;;4992893;28;20254;-76
2022/10/16 07:39:44;;;;;;;2.40;0.82;;;15.30;99.90;;;;;;4989311;28;20030;-76
2022/10/16 07:42:10;;;;;;;1.15;0.70;;;15.50;99.90;;;;;;4992074;28;20053;-76
2022/10/16 07:44:35;;;;;;;0.90;0.88;;;15.70;99.90;;;;;;4986628;28;20487;-78
2022/10/16 07:47:01;;;;;;;0.40;0.40;;;15.80;99.90;;;;;;4988029;28;20482;-79
2022/10/16 07:49:27;;;;;;;6.63;1.40;;;15.90;99.90;;;;;;4987707;28;20030;-79
2022/10/16 07:51:53;;;;;;;1.25;0.90;;;16.00;99.90;;;;;;4987586;28;20435;-79
2022/10/16 07:54:18;;;;;;;0.70;0.52;;;16.20;99.90;;;;;;4971761;28;20070;-79
2022/10/16 07:56:44;;;;;;;0.75;0.68;;;16.30;99.90;;;;;;4980192;28;20045;-80
2022/10/16 07:59:10;;;;;;;15.48;0.50;;;16.30;99.90;;;;;;4996305;28;20105;-78
2022/10/16 08:01:35;;;;;;;1.70;1.23;;;16.10;99.90;;;;;;4994884;28;20030;-78
2022/10/16 08:04:01;;;;;;;0.55;0.55;;;16.10;99.90;;;;;;4997196;28;20034;-77
2022/10/16 08:06:27;;;;;;;0.40;0.30;;;16.00;99.90;;;;;;5000899;28;20028;-78
2022/10/16 08:08:52;;;;;;;0.98;0.70;;;16.10;99.90;;;;;;4999423;28;20023;-78
2022/10/16 08:11:18;;;;;;;2.38;0.73;;;16.20;99.90;;;;;;4973770;28;20326;-79
2022/10/16 08:13:44;;;;;;;0.55;0.55;;;16.20;99.90;;;;;;4966471;28;20431;-79
2022/10/16 08:16:10;;;;;;;1.08;0.98;;;16.20;99.90;;;;;;4968020;28;20073;-77
2022/10/16 08:18:40;;;;;;;2.35;0.70;;;16.20;99.90;;;;;;4981424;28;20038;-80
2022/10/16 08:21:07;;;;;;;2.40;0.40;;;16.10;99.90;;;;;;4988209;28;20030;-79
2022/10/16 08:23:33;;;;;;;0.52;0.52;;;16.10;99.90;;;;;;4987743;28;20344;-77
2022/10/16 08:26:05;;;;;;;1.13;0.90;;;16.10;99.90;;;;;;4987477;28;20918;-78
2022/10/16 08:28:31;;;;;;;0.77;0.60;;;16.20;99.90;;;;;;4988256;28;20468;-78
2022/10/16 08:31:07;;;;;;;0.80;0.80;;;16.20;99.90;;;;;;4986287;28;20033;-78
2022/10/16 08:33:34;;;;;;;8.07;1.63;;;16.20;99.90;;;;;;4986616;28;20511;-79
2022/10/16 08:36:00;;;;;;;1.25;1.23;;;16.30;99.90;;;;;;4987440;28;20041;-79
2022/10/16 08:38:26;;;;;;;4.53;0.95;;;16.30;99.90;;;;;;4987359;28;20026;-78
2022/10/16 08:40:57;;;;;;;7.97;1.05;;;16.40;99.90;;;;;;4986849;28;20030;-78
2022/10/16 08:43:39;;;;;;;0.57;0.57;;;16.40;99.90;;;;;;4987361;28;20597;-78
2022/10/16 08:46:16;;;;;;;0.63;0.30;;;16.30;99.90;;;;;;4986771;28;20052;-79
2022/10/16 08:48:49;;;;;;;1.08;0.50;;;16.30;99.90;;;;;;4971429;28;20058;-75
2022/10/16 08:51:24;;;;;;;1.02;0.70;;;16.30;99.90;;;;;;4966843;28;20026;-76
2022/10/16 08:53:58;;;;;;;0.30;0.30;;;16.40;99.90;;;;;;4966470;28;20105;-76
2022/10/16 08:56:25;;;;;;;4.63;0.63;;;16.50;99.90;;;;;;4968026;28;20030;-78
2022/10/16 08:58:53;;;;;;;0.30;0.30;;;16.70;99.90;;;;;;4967810;28;20023;-77
2022/10/16 09:01:22;;;;;;;0.40;0.40;;;16.80;99.90;;;;;;4967813;28;20756;-77
2022/10/16 09:04:18;;;;;;;0.57;0.20;;;16.90;99.90;;;;;;4966900;28;20043;-78
2022/10/16 09:07:20;;;;;;;0.50;0.50;;;17.00;99.90;;;;;;4967221;28;20030;-78
2022/10/16 09:10:31;;;;;;;4.53;0.45;;;17.10;99.90;;;;;;4968339;28;20031;-76
2022/10/16 09:13:26;;;;;;;1.88;1.15;;;17.30;99.90;;;;;;4963063;28;20062;-76
2022/10/16 09:16:14;;;;;;;4.07;0.95;;;17.50;99.90;;;;;;4968361;28;20026;-77
2022/10/16 09:18:54;;;;;;;2.08;0.52;;;17.60;99.90;;;;;;4970537;28;20055;-76
2022/10/16 09:21:43;;;;;;;1.45;0.82;;;17.80;99.90;;;;;;4967846;28;20436;-75
2022/10/16 09:24:19;;;;;;;4.78;1.10;;;18.20;99.90;;;;;;4967684;28;20501;-79
2022/10/16 09:26:45;;;;;;;0.40;0.35;;;18.70;99.90;;;;;;4969383;28;20223;-80
2022/10/16 09:29:16;;;;;;;1.02;0.60;;;19.10;99.90;;;;;;4979863;28;20030;-78
2022/10/16 09:31:43;;;;;;;0.45;0.45;;;19.50;99.90;;;;;;4990779;28;20364;-80
2022/10/16 09:34:23;;;;;;;0.30;0.30;;;19.80;99.90;;;;;;4986843;28;20026;-79
2022/10/16 09:36:49;;;;;;;0.45;0.43;;;19.90;99.90;;;;;;4986142;28;20026;-79
2022/10/16 09:39:15;;;;;;;0.30;0.30;;;20.00;99.90;;;;;;4986157;28;20038;-78
2022/10/16 09:41:43;;;;;;;0.63;0.55;;;19.80;99.90;;;;;;4994194;28;20023;-80
2022/10/16 09:44:23;;;;;;;3.25;0.52;;;19.80;99.90;;;;;;4984820;28;20430;-77
2022/10/16 09:46:49;;;;;;;0.73;0.30;;;19.50;99.90;;;;;;4984710;28;20086;-79
2022/10/16 09:49:26;;;;;;;0.43;0.43;;;19.40;99.90;;;;;;4987694;28;20030;-81
2022/10/16 09:52:11;;;;;;;0.93;0.43;;;19.30;99.90;;;;;;4988288;28;20027;-80
2022/10/16 09:54:37;;;;;;;0.60;0.55;;;19.20;99.90;;;;;;4986491;28;20026;-77
2022/10/16 09:57:07;;;;;;;0.50;0.50;;;19.30;99.90;;;;;;4987431;28;20033;-78
2022/10/16 09:59:33;;;;;;;0.80;0.40;;;19.50;99.90;;;;;;4984400;28;20030;-80
2022/10/16 10:02:14;;;;;;;0.57;0.57;;;19.70;99.90;;;;;;4985714;28;20038;-79
2022/10/16 10:04:57;;;;;;;0.40;0.40;;;20.00;99.90;;;;;;4985851;28;20066;-81
2022/10/16 10:07:28;;;;;;;0.55;0.45;;;20.30;99.90;;;;;;4986059;28;20018;-79
2022/10/16 10:09:56;;;;;;;1.00;0.63;;;20.60;99.90;;;;;;4986275;28;20029;-80
2022/10/16 10:12:25;;;;;;;0.35;0.35;;;20.90;99.90;;;;;;4985238;28;20483;-82
2022/10/16 10:14:52;;;;;;;;;;;20.80;99.90;;;;;;4993483;28;20049;-79
2022/10/16 10:17:22;;;;;;;0.38;0.38;;;20.70;99.90;;;;;;4987510;28;20028;-80
2022/10/16 10:19:56;;;;;;;0.35;0.35;;;20.60;99.90;;;;;;4986996;28;20043;-81
2022/10/16 10:22:30;;;;;;;0.88;0.88;;;20.50;99.90;;;;;;4989656;28;20499;-81
2022/10/16 10:24:57;;;;;;;0.40;0.38;;;20.40;99.90;;;;;;4990821;28;20038;-76
2022/10/16 10:27:45;;;;;;;0.80;0.80;;;20.40;99.90;;;;;;4990754;28;20257;-81
2022/10/16 10:30:38;;;;;;;12.05;0.60;;;20.40;99.90;;;;;;4971501;28;20040;-80
2022/10/16 10:33:18;;;;;;;0.50;0.50;;;20.50;99.90;;;;;;4971141;28;20019;-80
2022/10/16 10:36:05;;;;;;;0.30;0.30;;;20.80;99.90;;;;;;4974421;28;20492;-81
2022/10/16 10:38:37;;;;;;;0.77;0.47;;;20.80;99.90;;;;;;4971331;28;20378;-79
2022/10/16 10:41:21;;;;;;;0.35;0.35;;;20.90;99.90;;;;;;4969458;28;20031;-80
2022/10/16 10:43:52;;;;;;;0.40;0.40;;;21.00;99.90;;;;;;4969453;28;20043;-80
2022/10/16 10:46:41;;;;;;;1.15;0.88;;;21.10;99.90;;;;;;4969037;28;20069;-79
2022/10/16 10:49:36;;;;;;;0.25;0.25;;;21.40;99.90;;;;;;4969388;28;20067;-78
2022/10/16 10:52:10;;;;;;;1.08;0.55;;;21.40;99.90;;;;;;4969424;28;20446;-80
2022/10/16 10:55:01;;;;;;;4.85;0.65;;;21.40;99.90;;;;;;4970513;28;20051;-80
2022/10/16 10:57:42;;;;;;;1.55;0.52;;;21.70;99.90;;;;;;4962508;28;20117;-78
2022/10/16 11:00:25;;;;;;;0.32;0.32;;;20.80;99.90;;;;;;4970295;28;20035;-80
2022/10/16 11:03:09;;;;;;;0.50;0.35;;;22.20;99.90;;;;;;4971022;28;20029;-80
2022/10/16 11:06:03;;;;;;;0.93;0.65;;;22.30;99.90;;;;;;4970167;28;20035;-79
2022/10/16 11:08:37;;;;;;;0.25;0.20;;;22.30;99.90;;;;;;4938819;28;20440;-75
2022/10/16 11:11:38;;;;;;;0.32;0.32;;;22.50;99.90;;;;;;4970026;28;20460;-75
2022/10/16 11:14:32;;;;;;;0.13;0.13;;;22.60;99.90;;;;;;4966251;28;20523;-76
2022/10/16 11:17:13;;;;;;;3.47;0.47;;;22.90;99.90;;;;;;4940055;28;20039;-79
2022/10/16 11:20:09;;;;;;;0.68;0.38;;;23.40;99.90;;;;;;4969757;28;20070;-77
2022/10/16 11:22:52;;;;;;;1.63;0.30;;;23.70;99.90;;;;;;4970168;28;20042;-79
2022/10/16 11:25:23;;;;;;;0.30;0.30;;;23.90;99.90;;;;;;4969782;28;20445;-78
2022/10/16 11:28:00;;;;;;;2.42;1.23;;;24.10;99.90;;;;;;4971171;28;20025;-78
2022/10/16 11:30:30;;;;;;;2.10;0.40;;;24.10;99.90;;;;;;4991034;28;20105;-79
2022/10/16 11:33:08;;;;;;;0.52;0.47;;;24.10;99.90;;;;;;4990434;28;20022;-76
2022/10/16 11:35:49;;;;;;;0.70;0.70;;;24.20;99.90;;;;;;4991321;28;20053;-80
2022/10/16 11:38:21;;;;;;;2.15;0.40;;;24.20;99.90;;;;;;4989451;28;20450;-77
2022/10/16 11:40:54;;;;;;;1.55;0.85;;;24.00;99.90;;;;;;4988863;28;20026;-80
2022/10/16 11:43:29;;;;;;;0.52;0.47;;;24.00;99.90;;;;;;4988962;28;20026;-78
2022/10/16 11:45:59;;;;;;;0.30;0.30;;;23.90;99.90;;;;;;4988552;28;20054;-76
2022/10/16 11:48:53;;;;;;;0.52;0.30;;;23.80;99.90;;;;;;4987401;28;20454;-79
2022/10/16 11:51:38;;;;;;;0.40;0.40;;;23.70;99.90;;;;;;4983198;28;20045;-79
2022/10/16 11:54:28;;;;;;;0.50;0.50;;;23.70;99.90;;;;;;4988191;28;20037;-79
2022/10/16 11:56:59;;;;;;;2.47;0.55;;;23.70;99.90;;;;;;4988911;28;20108;-76
2022/10/16 11:59:42;;;;;;;1.08;0.40;;;23.80;99.90;;;;;;4988792;28;20491;-76
2022/10/16 12:02:28;;;;;;;0.38;0.35;;;23.80;99.90;;;;;;4988056;28;20026;-77
2022/10/16 12:05:03;;;;;;;0.38;0.38;;;23.60;99.90;;;;;;4988197;28;20041;-76
2022/10/16 12:07:46;;;;;;;1.65;1.55;;;23.50;99.90;;;;;;4988498;28;20585;-76
2022/10/16 12:10:25;;;;;;;1.77;0.30;;;23.70;99.90;;;;;;4986829;28;20499;-76
2022/10/16 12:12:53;;;;;;;0.32;0.20;;;23.90;99.90;;;;;;4988390;28;20042;-76
2022/10/16 12:15:32;;;;;;;0.47;0.47;;;24.20;99.90;;;;;;4987633;28;20030;-77
2022/10/16 12:17:58;;;;;;;0.52;0.30;;;24.90;99.90;;;;;;4988258;28;20030;-78
2022/10/16 12:20:31;;;;;;;0.30;0.30;;;25.60;99.90;;;;;;4987935;28;20516;-78
2022/10/16 12:23:05;;;;;;;0.60;0.60;;;26.80;96.80;;;;;;4987997;28;20154;-77
2022/10/16 12:25:46;;;;;;;1.15;0.35;;;28.30;86.80;;;;;;4987850;28;20113;-78
2022/10/16 12:28:24;;;;;;;0.35;0.10;;;30.10;65.90;;;;;;4987100;28;20102;-76
2022/10/16 12:30:58;;;;;;;0.52;0.28;;;30.20;66.20;;;;;;4968300;28;20034;-77
2022/10/16 12:33:29;;;;;;;0.65;0.32;;;31.10;62.80;;;;;;4968559;28;20031;-77
2022/10/16 12:35:57;;;;;;;0.20;0.20;;;31.80;60.30;;;;;;4969090;28;20027;-77
2022/10/16 12:38:36;;;;;;;0.35;0.35;;;31.30;59.80;;;;;;4968475;28;20067;-79
2022/10/16 12:41:08;;;;;;;0.40;0.40;;;31.20;60.00;;;;;;4968786;28;20039;-76
2022/10/16 12:43:47;;;;;;;1.25;0.47;;;31.20;60.10;;;;;;4966861;28;20039;-78
2022/10/16 12:46:13;;;;;;;0.30;0.30;;;31.90;58.90;;;;;;4967140;28;20023;-78
2022/10/16 12:48:41;;;;;;;0.77;0.30;;;31.80;58.00;;;;;;4967639;28;20183;-78
2022/10/16 12:51:40;;;;;;;0.22;0.22;;;31.30;57.90;;;;;;4966999;28;20613;-79
2022/10/16 12:54:28;;;;;;;0.32;0.32;;;30.60;59.50;;;;;;4966734;28;20806;-76
2022/10/16 12:57:06;;;;;;;0.13;0.13;;;31.00;59.70;;;;;;4966651;28;20057;-78
2022/10/16 13:00:08;;;;;;;0.32;0.17;;;31.50;56.10;;;;;;4967109;28;20555;-80
2022/10/16 13:02:45;;;;;;;1.08;0.52;;;31.60;57.00;;;;;;4957419;28;20046;-79
2022/10/16 13:05:33;;;;;;;0.30;0.30;;;31.80;56.50;;;;;;4968004;28;20107;-76
2022/10/16 13:08:34;;;;;;;0.35;0.35;;;32.10;56.40;;;;;;4967618;28;20350;-79